Time;durP1;ratioP1;P1;durP2;ratioP2;P2;SDS_P1;SDS_P2;PMS_P1;PMS_P2;Temp;Humidity;BMP_temperature;BMP_pressure;BME280_temperature;BME280_humidity;BME280_pressure;Samples;Min_cycle;Max_cycle;Signal;HPM_P1;HPM_P2
2022/03/23 00:00:48;;;;;;;15.63;6.47;;;;;;;;;;5057010;28;20036;-51
2022/03/23 00:03:15;;;;;;;17.42;6.50;;;;;;;;;;5062609;28;20094;-52
2022/03/23 00:05:41;;;;;;;16.08;6.70;;;;;;;;;;5063901;28;20044;-51
2022/03/23 00:08:08;;;;;;;22.55;6.95;;;;;;;;;;5064761;28;20383;-53
2022/03/23 00:10:34;;;;;;;15.55;6.22;;;;;;;;;;5061618;28;20032;-50
2022/03/23 00:13:00;;;;;;;16.73;6.35;;;;;;;;;;5060764;28;20024;-52
2022/03/23 00:15:27;;;;;;;14.13;6.30;;;;;;;;;;5057757;28;20321;-52
2022/03/23 00:17:53;;;;;;;18.38;7.07;;;;;;;;;;5059819;28;20497;-51
2022/03/23 00:20:19;;;;;;;21.23;7.13;;;;;;;;;;5060402;28;20044;-53
2022/03/23 00:22:45;;;;;;;18.95;6.55;;;;;;;;;;5063786;28;20024;-54
2022/03/23 00:25:12;;;;;;;19.20;7.35;;;;;;;;;;5063648;28;20243;-53
2022/03/23 00:27:38;;;;;;;23.52;6.32;;;;;;;;;;5062976;28;20486;-53
2022/03/23 00:30:05;;;;;;;17.08;6.55;;;;;;;;;;5066674;28;20043;-54
2022/03/23 00:32:31;;;;;;;16.13;7.20;;;;;;;;;;5063768;28;20321;-52
2022/03/23 00:34:56;;;;;;;16.73;6.40;;;;;;;;;;5060971;28;20317;-51
2022/03/23 00:37:22;;;;;;;20.00;7.03;;;;;;;;;;5064508;28;20024;-53
2022/03/23 00:39:48;;;;;;;20.33;7.40;;;;;;;;;;5061186;28;20039;-51
2022/03/23 00:42:13;;;;;;;13.55;6.55;;;;;;;;;;5060495;28;20040;-53
2022/03/23 00:44:39;;;;;;;17.67;8.02;;;;;;;;;;5063339;28;20143;-53
2022/03/23 00:47:04;;;;;;;21.25;6.47;;;;;;;;;;5064658;28;20114;-53
2022/03/23 00:49:30;;;;;;;18.75;6.97;;;;;;;;;;5059734;28;20135;-54
2022/03/23 00:51:56;;;;;;;18.40;7.35;;;;;;;;;;5057395;28;20115;-53
2022/03/23 00:54:23;;;;;;;14.52;7.07;;;;;;;;;;5060695;28;20048;-53
2022/03/23 00:56:50;;;;;;;17.48;7.05;;;;;;;;;;5055435;28;20032;-53
2022/03/23 00:59:17;;;;;;;20.70;6.90;;;;;;;;;;5061960;28;20047;-54
2022/03/23 01:01:45;;;;;;;19.98;7.53;;;;;;;;;;5058360;28;20045;-51
2022/03/23 01:04:11;;;;;;;16.08;6.78;;;;;;;;;;5063731;28;20047;-51
2022/03/23 01:06:36;;;;;;;24.25;8.15;;;;;;;;;;5063388;28;20490;-51
2022/03/23 01:09:02;;;;;;;21.55;7.45;;;;;;;;;;5060021;28;20045;-53
2022/03/23 01:11:27;;;;;;;19.02;7.40;;;;;;;;;;5059015;28;20376;-51
2022/03/23 01:13:53;;;;;;;20.80;6.63;;;;;;;;;;5068943;28;20024;-51
2022/03/23 01:16:18;;;;;;;15.68;7.28;;;;;;;;;;5061202;28;20109;-52
2022/03/23 01:18:44;;;;;;;19.98;7.93;;;;;;;;;;5064662;28;20032;-51
2022/03/23 01:21:09;;;;;;;17.33;6.68;;;;;;;;;;5057151;28;20048;-53
2022/03/23 01:23:35;;;;;;;16.95;7.63;;;;;;;;;;5064383;28;20039;-52
2022/03/23 01:26:00;;;;;;;20.90;7.65;;;;;;;;;;5063607;28;20020;-52
2022/03/23 01:28:26;;;;;;;19.25;7.97;;;;;;;;;;5058630;28;20041;-50
2022/03/23 01:30:51;;;;;;;19.33;8.23;;;;;;;;;;5063138;28;20036;-52
2022/03/23 01:33:17;;;;;;;22.33;7.13;;;;;;;;;;5061176;28;20044;-50
2022/03/23 01:35:42;;;;;;;17.50;7.57;;;;;;;;;;5055979;28;20082;-51
2022/03/23 01:38:08;;;;;;;28.98;7.95;;;;;;;;;;5063443;28;20095;-51
2022/03/23 01:40:33;;;;;;;23.95;8.73;;;;;;;;;;5061795;28;20029;-51
2022/03/23 01:42:59;;;;;;;26.15;8.25;;;;;;;;;;5060856;28;20052;-51
2022/03/23 01:45:24;;;;;;;22.17;8.55;;;;;;;;;;5062665;28;20114;-51
2022/03/23 01:47:50;;;;;;;21.88;7.70;;;;;;;;;;5060310;28;20032;-51
2022/03/23 01:50:15;;;;;;;24.45;8.35;;;;;;;;;;5061562;28;20120;-51
2022/03/23 01:52:41;;;;;;;20.00;8.30;;;;;;;;;;5062118;28;20041;-51
2022/03/23 01:55:11;;;;;;;24.50;8.23;;;;;;;;;;5060805;28;20607;-51
2022/03/23 01:57:39;;;;;;;19.48;8.23;;;;;;;;;;5059109;28;20107;-53
2022/03/23 02:00:07;;;;;;;21.88;8.95;;;;;;;;;;5060103;28;20028;-51
2022/03/23 02:02:32;;;;;;;20.90;8.23;;;;;;;;;;5064471;28;20025;-50
2022/03/23 02:04:58;;;;;;;19.75;8.25;;;;;;;;;;5061221;28;20045;-50
2022/03/23 02:07:24;;;;;;;21.25;8.52;;;;;;;;;;5073823;28;20047;-50
2022/03/23 02:09:50;;;;;;;23.50;9.80;;;;;;;;;;5064516;28;20127;-50
2022/03/23 02:12:16;;;;;;;25.45;9.25;;;;;;;;;;5064688;28;20454;-51
2022/03/23 02:14:42;;;;;;;20.42;8.88;;;;;;;;;;5063922;28;20385;-52
2022/03/23 02:17:08;;;;;;;20.40;9.15;;;;;;;;;;5062928;28;20472;-53
2022/03/23 02:19:35;;;;;;;21.35;9.32;;;;;;;;;;5063269;28;20036;-51
2022/03/23 02:22:01;;;;;;;22.58;9.45;;;;;;;;;;5060286;28;20274;-54
2022/03/23 02:24:28;;;;;;;33.72;9.43;;;;;;;;;;5062077;28;20029;-54
2022/03/23 02:26:55;;;;;;;29.90;10.27;;;;;;;;;;5057345;28;20056;-54
2022/03/23 02:29:22;;;;;;;26.60;9.75;;;;;;;;;;5067492;28;20687;-54
2022/03/23 02:31:47;;;;;;;35.47;10.27;;;;;;;;;;5064179;28;20035;-53
2022/03/23 02:34:13;;;;;;;22.33;9.10;;;;;;;;;;5068731;28;20032;-52
2022/03/23 02:36:39;;;;;;;27.55;10.23;;;;;;;;;;5059410;28;20032;-53
2022/03/23 02:39:04;;;;;;;25.65;10.40;;;;;;;;;;5062424;28;20478;-52
2022/03/23 02:41:31;;;;;;;26.80;10.13;;;;;;;;;;5063492;28;20094;-52
2022/03/23 02:43:56;;;;;;;29.90;10.60;;;;;;;;;;5062642;28;20260;-52
2022/03/23 02:46:22;;;;;;;26.45;10.35;;;;;;;;;;5064629;28;20478;-54
2022/03/23 02:48:51;;;;;;;26.27;10.73;;;;;;;;;;5063277;28;20032;-53
2022/03/23 02:51:17;;;;;;;23.88;10.10;;;;;;;;;;5062599;28;20036;-52
2022/03/23 03:02:22;;;;;;;25.13;9.95;;;;;;;;;;5068097;28;20113;-53
2022/03/23 03:04:51;;;;;;;27.02;10.63;;;;;;;;;;5064404;28;20053;-53
2022/03/23 03:07:18;;;;;;;33.55;11.05;;;;;;;;;;5061707;28;20032;-53
2022/03/23 03:09:44;;;;;;;24.33;10.38;;;;;;;;;;5067617;28;20033;-52
2022/03/23 03:12:11;;;;;;;30.88;11.18;;;;;;;;;;5063144;28;20094;-51
2022/03/23 03:14:37;;;;;;;26.23;10.90;;;;;;;;;;5062375;28;20138;-54
2022/03/23 03:17:04;;;;;;;24.52;10.73;;;;;;;;;;5060708;28;20075;-52
2022/03/23 03:19:30;;;;;;;29.60;11.00;;;;;;;;;;5069221;28;20497;-53
2022/03/23 03:21:55;;;;;;;27.40;11.07;;;;;;;;;;5067371;28;20040;-52
2022/03/23 03:24:21;;;;;;;28.55;11.45;;;;;;;;;;5060015;28;20036;-52
2022/03/23 03:26:47;;;;;;;27.70;11.07;;;;;;;;;;5060437;28;20044;-52
2022/03/23 03:29:13;;;;;;;35.08;11.18;;;;;;;;;;5065131;28;20078;-55
2022/03/23 03:31:38;;;;;;;29.38;12.00;;;;;;;;;;5071676;28;20039;-53
2022/03/23 03:34:04;;;;;;;27.08;11.43;;;;;;;;;;5063952;28;20545;-54
2022/03/23 03:36:29;;;;;;;30.60;11.45;;;;;;;;;;5057164;28;20082;-53
2022/03/23 03:38:55;;;;;;;41.92;12.50;;;;;;;;;;5062338;28;20026;-54
2022/03/23 03:41:20;;;;;;;35.33;11.82;;;;;;;;;;5063837;28;20469;-53
2022/03/23 03:43:46;;;;;;;33.13;11.48;;;;;;;;;;5064702;28;20040;-53
2022/03/23 03:46:12;;;;;;;33.10;11.45;;;;;;;;;;5060874;28;20052;-52
2022/03/23 03:48:42;;;;;;;26.08;11.82;;;;;;;;;;5069037;28;20055;-52
2022/03/23 03:51:08;;;;;;;26.50;11.65;;;;;;;;;;5063300;28;20056;-52
2022/03/23 03:53:35;;;;;;;34.67;10.93;;;;;;;;;;5063060;28;20086;-52
2022/03/23 03:56:01;;;;;;;27.83;11.60;;;;;;;;;;5059713;28;20472;-52
2022/03/23 03:58:27;;;;;;;27.88;11.45;;;;;;;;;;5062828;28;20028;-53
2022/03/23 04:00:52;;;;;;;34.38;11.90;;;;;;;;;;5064078;28;20247;-51
2022/03/23 04:03:18;;;;;;;27.08;11.20;;;;;;;;;;5069631;28;20044;-52
2022/03/23 04:05:44;;;;;;;28.48;11.70;;;;;;;;;;5065586;28;20048;-52
2022/03/23 04:08:10;;;;;;;26.42;10.93;;;;;;;;;;5063882;28;20454;-54
2022/03/23 04:10:35;;;;;;;30.40;11.80;;;;;;;;;;5064423;28;20056;-51
2022/03/23 04:13:02;;;;;;;28.20;11.13;;;;;;;;;;5064046;28;20035;-51
2022/03/23 04:15:27;;;;;;;28.60;11.75;;;;;;;;;;5063908;28;20040;-52
2022/03/23 04:17:54;;;;;;;34.35;12.00;;;;;;;;;;5065020;28;20036;-52
2022/03/23 04:20:20;;;;;;;28.38;12.27;;;;;;;;;;5062070;28;20086;-53
2022/03/23 04:22:45;;;;;;;31.75;11.20;;;;;;;;;;5081231;28;20568;-55
2022/03/23 04:25:13;;;;;;;34.20;12.70;;;;;;;;;;5066654;28;20033;-54
2022/03/23 04:27:46;;;;;;;31.05;11.82;;;;;;;;;;5061595;28;20565;-53
2022/03/23 04:30:12;;;;;;;28.35;11.85;;;;;;;;;;5063138;28;20482;-55
2022/03/23 04:32:38;;;;;;;30.80;12.55;;;;;;;;;;5070483;28;20043;-52
2022/03/23 04:35:05;;;;;;;32.88;12.60;;;;;;;;;;5064990;28;20032;-52
2022/03/23 04:37:30;;;;;;;34.35;12.45;;;;;;;;;;5065470;28;20024;-54
2022/03/23 04:39:56;;;;;;;29.40;12.60;;;;;;;;;;5067104;28;20097;-53
2022/03/23 04:42:21;;;;;;;25.77;11.82;;;;;;;;;;5065668;28;20042;-53
2022/03/23 04:44:47;;;;;;;36.92;13.13;;;;;;;;;;5063107;28;20591;-53
2022/03/23 04:47:12;;;;;;;31.35;12.90;;;;;;;;;;5063326;28;20075;-52
2022/03/23 04:49:38;;;;;;;32.65;13.25;;;;;;;;;;5064643;28;20048;-53
2022/03/23 04:52:04;;;;;;;37.92;14.27;;;;;;;;;;5064250;28;20506;-52
2022/03/23 04:54:29;;;;;;;33.03;12.07;;;;;;;;;;5063637;28;20035;-53
2022/03/23 04:56:55;;;;;;;26.77;12.85;;;;;;;;;;5061764;28;20036;-52
2022/03/23 04:59:21;;;;;;;31.38;12.75;;;;;;;;;;5058325;28;20273;-52
2022/03/23 05:01:47;;;;;;;31.25;13.55;;;;;;;;;;5066584;28;20039;-52
2022/03/23 05:04:13;;;;;;;39.15;13.80;;;;;;;;;;5060553;28;20040;-51
2022/03/23 05:06:38;;;;;;;35.13;12.88;;;;;;;;;;5062867;28;20039;-53
2022/03/23 05:09:04;;;;;;;30.17;12.07;;;;;;;;;;5063401;28;20072;-52
2022/03/23 05:11:29;;;;;;;34.50;13.55;;;;;;;;;;5063408;28;20040;-51
2022/03/23 05:13:55;;;;;;;44.42;14.05;;;;;;;;;;5064512;28;20040;-52
2022/03/23 05:16:20;;;;;;;39.08;15.27;;;;;;;;;;5065963;28;20039;-51
2022/03/23 05:18:46;;;;;;;33.83;13.40;;;;;;;;;;5065274;28;20127;-51
2022/03/23 05:21:12;;;;;;;48.20;14.73;;;;;;;;;;5059910;28;20190;-53
2022/03/23 05:23:37;;;;;;;47.92;14.52;;;;;;;;;;5062672;28;20598;-52
2022/03/23 05:26:03;;;;;;;39.38;14.70;;;;;;;;;;5063832;28;20093;-52
2022/03/23 05:28:29;;;;;;;35.05;14.35;;;;;;;;;;5065023;28;20119;-51
2022/03/23 05:30:54;;;;;;;35.53;14.40;;;;;;;;;;5065499;28;20039;-53
2022/03/23 05:33:19;;;;;;;39.90;14.32;;;;;;;;;;5062024;28;20059;-52
2022/03/23 05:35:45;;;;;;;40.42;13.88;;;;;;;;;;5066464;28;20111;-53
2022/03/23 05:38:10;;;;;;;37.00;13.43;;;;;;;;;;5064602;28;20037;-53
2022/03/23 05:40:36;;;;;;;66.05;16.67;;;;;;;;;;5067605;28;20454;-52
2022/03/23 05:43:02;;;;;;;34.63;12.68;;;;;;;;;;5065179;28;20383;-51
2022/03/23 05:45:28;;;;;;;34.35;12.85;;;;;;;;;;5065816;28;20038;-52
2022/03/23 05:47:53;;;;;;;31.77;13.57;;;;;;;;;;5063246;28;20481;-53
2022/03/23 05:50:20;;;;;;;42.80;14.63;;;;;;;;;;5062336;28;20039;-52
2022/03/23 05:52:45;;;;;;;38.67;13.65;;;;;;;;;;5068225;28;20024;-54
2022/03/23 05:55:11;;;;;;;39.55;13.60;;;;;;;;;;5064801;28;20478;-51
2022/03/23 05:57:37;;;;;;;35.85;13.35;;;;;;;;;;5060827;28;20029;-52
2022/03/23 06:00:07;;;;;;;31.55;13.30;;;;;;;;;;5065949;28;20073;-51
2022/03/23 06:02:33;;;;;;;30.88;12.52;;;;;;;;;;5066104;28;20453;-51
2022/03/23 06:04:58;;;;;;;32.00;12.63;;;;;;;;;;5063792;28;20135;-52
2022/03/23 06:07:24;;;;;;;32.13;13.27;;;;;;;;;;5061271;28;20094;-51
2022/03/23 06:09:49;;;;;;;38.28;13.32;;;;;;;;;;5059748;28;20498;-51
2022/03/23 06:12:15;;;;;;;34.50;12.65;;;;;;;;;;5064039;28;20036;-51
2022/03/23 06:14:42;;;;;;;37.53;13.95;;;;;;;;;;5063431;28;20032;-52
2022/03/23 06:17:08;;;;;;;32.03;12.98;;;;;;;;;;5067434;28;20174;-51
2022/03/23 06:19:34;;;;;;;34.13;13.90;;;;;;;;;;5064574;28;20086;-52
2022/03/23 06:22:00;;;;;;;32.90;13.98;;;;;;;;;;5067402;28;20567;-52
2022/03/23 06:24:26;;;;;;;37.00;14.02;;;;;;;;;;5063476;28;20024;-52
2022/03/23 06:26:51;;;;;;;33.92;13.60;;;;;;;;;;5065675;28;20682;-51
2022/03/23 06:29:17;;;;;;;45.38;15.30;;;;;;;;;;5068136;28;20036;-52
2022/03/23 06:31:42;;;;;;;48.50;16.30;;;;;;;;;;5065953;28;20719;-51
2022/03/23 06:34:08;;;;;;;45.65;15.05;;;;;;;;;;5065282;28;20041;-52
2022/03/23 06:36:35;;;;;;;39.20;14.23;;;;;;;;;;5063807;28;20081;-51
2022/03/23 06:39:00;;;;;;;37.42;14.93;;;;;;;;;;5060733;28;20031;-53
2022/03/23 06:41:26;;;;;;;43.50;14.95;;;;;;;;;;5063287;28;20442;-52
2022/03/23 06:43:52;;;;;;;41.00;15.38;;;;;;;;;;5063387;28;20047;-51
2022/03/23 06:46:17;;;;;;;47.53;17.15;;;;;;;;;;5063863;28;20112;-51
2022/03/23 06:48:43;;;;;;;40.80;13.93;;;;;;;;;;5066295;28;20085;-52
2022/03/23 06:51:08;;;;;;;47.65;15.45;;;;;;;;;;5061763;28;20074;-52
2022/03/23 06:53:34;;;;;;;40.83;15.45;;;;;;;;;;5061203;28;20060;-52
2022/03/23 06:55:59;;;;;;;46.47;15.38;;;;;;;;;;5063364;28;20046;-52
2022/03/23 06:58:25;;;;;;;47.78;15.57;;;;;;;;;;5064929;28;20029;-54
2022/03/23 07:00:50;;;;;;;47.53;15.80;;;;;;;;;;5061304;28;20490;-52
2022/03/23 07:03:16;;;;;;;40.67;15.73;;;;;;;;;;5061964;28;20495;-52
2022/03/23 07:05:41;;;;;;;45.88;17.55;;;;;;;;;;5063276;28;20036;-52
2022/03/23 07:10:50;;;;;;;55.30;17.40;;;;;;;;;;5062909;28;20043;-53
2022/03/23 07:13:16;;;;;;;53.28;16.52;;;;;;;;;;5067641;28;20028;-54
2022/03/23 07:15:42;;;;;;;57.35;17.60;;;;;;;;;;5066264;28;20414;-52
2022/03/23 07:18:09;;;;;;;55.28;17.50;;;;;;;;;;5066177;28;20451;-52
2022/03/23 07:20:35;;;;;;;45.03;17.45;;;;;;;;;;5062375;28;20043;-52
2022/03/23 07:23:01;;;;;;;53.05;18.70;;;;;;;;;;5066404;28;20036;-54
2022/03/23 07:25:26;;;;;;;72.28;19.77;;;;;;;;;;5070073;28;20028;-51
2022/03/23 07:27:52;;;;;;;50.28;18.75;;;;;;;;;;5064389;28;20091;-53
2022/03/23 07:30:17;;;;;;;49.85;17.45;;;;;;;;;;5075179;28;20493;-53
2022/03/23 07:32:43;;;;;;;56.78;20.08;;;;;;;;;;5051540;28;20058;-52
2022/03/23 07:35:08;;;;;;;58.63;18.25;;;;;;;;;;5063358;28;20040;-54
2022/03/23 07:37:34;;;;;;;53.42;19.00;;;;;;;;;;5063231;28;20325;-52
2022/03/23 07:40:00;;;;;;;55.22;19.20;;;;;;;;;;5063549;28;20040;-53
2022/03/23 07:42:25;;;;;;;49.80;18.38;;;;;;;;;;5061455;28;20043;-52
2022/03/23 07:44:51;;;;;;;53.95;16.95;;;;;;;;;;5061159;28;20440;-52
2022/03/23 07:47:16;;;;;;;53.20;19.13;;;;;;;;;;5064297;28;20032;-51
2022/03/23 07:49:42;;;;;;;49.75;17.30;;;;;;;;;;5065445;28;20099;-52
2022/03/23 07:52:09;;;;;;;49.85;17.02;;;;;;;;;;5063033;28;20024;-51
2022/03/23 07:54:35;;;;;;;57.53;18.98;;;;;;;;;;5063796;28;20063;-54
2022/03/23 07:57:01;;;;;;;49.17;18.00;;;;;;;;;;5062026;28;20052;-54
2022/03/23 07:59:27;;;;;;;55.25;18.67;;;;;;;;;;5060604;28;20068;-54
2022/03/23 08:01:52;;;;;;;54.70;18.48;;;;;;;;;;5069726;28;20131;-52
2022/03/23 08:04:18;;;;;;;47.63;18.52;;;;;;;;;;5061351;28;20127;-55
2022/03/23 08:06:43;;;;;;;46.97;18.13;;;;;;;;;;5057087;28;20045;-51
2022/03/23 08:09:09;;;;;;;62.90;19.27;;;;;;;;;;5056752;28;20047;-53
2022/03/23 08:11:35;;;;;;;57.45;18.77;;;;;;;;;;5058899;28;20035;-53
2022/03/23 08:14:01;;;;;;;48.03;19.40;;;;;;;;;;5066842;28;20039;-55
2022/03/23 08:16:27;;;;;;;55.25;19.90;;;;;;;;;;5064023;28;20025;-52
2022/03/23 08:18:52;;;;;;;51.65;18.58;;;;;;;;;;5067745;28;20497;-55
2022/03/23 08:21:20;;;;;;;40.97;16.75;;;;;;;;;;5071161;28;20347;-55
2022/03/23 08:23:46;;;;;;;49.45;19.48;;;;;;;;;;5065369;28;20163;-55
2022/03/23 08:26:15;;;;;;;56.45;18.88;;;;;;;;;;5061927;28;20190;-53
2022/03/23 08:28:44;;;;;;;52.95;18.77;;;;;;;;;;5065410;28;20040;-53
2022/03/23 08:31:11;;;;;;;49.65;18.27;;;;;;;;;;5070230;28;20062;-55
2022/03/23 08:33:37;;;;;;;78.57;19.42;;;;;;;;;;5073769;28;20727;-54
2022/03/23 08:36:05;;;;;;;47.25;19.60;;;;;;;;;;5064758;28;20059;-54
2022/03/23 08:38:31;;;;;;;48.13;19.40;;;;;;;;;;5064572;28;20033;-54
2022/03/23 08:40:57;;;;;;;49.72;19.27;;;;;;;;;;5059790;28;20032;-54
2022/03/23 08:43:23;;;;;;;57.22;19.40;;;;;;;;;;5059939;28;20040;-53
2022/03/23 08:45:48;;;;;;;54.03;19.60;;;;;;;;;;5061109;28;20025;-52
2022/03/23 08:48:14;;;;;;;49.03;20.25;;;;;;;;;;5062560;28;20286;-52
2022/03/23 08:50:42;;;;;;;55.30;19.67;;;;;;;;;;5063663;28;20093;-52
2022/03/23 08:53:07;;;;;;;49.92;19.83;;;;;;;;;;5065386;28;20036;-54
2022/03/23 08:55:33;;;;;;;59.45;20.10;;;;;;;;;;5061458;28;20032;-54
2022/03/23 08:57:59;;;;;;;51.08;18.80;;;;;;;;;;5064039;28;20103;-55
2022/03/23 09:00:25;;;;;;;61.00;20.60;;;;;;;;;;5062159;28;20028;-55
2022/03/23 09:02:50;;;;;;;53.58;19.77;;;;;;;;;;5064074;28;20127;-53
2022/03/23 09:05:19;;;;;;;52.05;19.85;;;;;;;;;;5067515;28;20060;-55
2022/03/23 09:07:44;;;;;;;51.05;17.33;;;;;;;;;;5063995;28;20490;-55
2022/03/23 09:10:13;;;;;;;50.10;20.65;;;;;;;;;;5066530;28;20071;-56
2022/03/23 09:12:38;;;;;;;54.35;19.38;;;;;;;;;;5066741;28;20037;-54
2022/03/23 09:15:06;;;;;;;57.33;20.45;;;;;;;;;;5068221;28;20102;-56
2022/03/23 09:17:32;;;;;;;50.70;19.13;;;;;;;;;;5068692;28;20437;-56
2022/03/23 09:20:00;;;;;;;54.40;18.77;;;;;;;;;;5066819;28;20024;-56
2022/03/23 09:22:27;;;;;;;64.63;19.70;;;;;;;;;;5063719;28;20121;-54
2022/03/23 09:24:52;;;;;;;57.20;20.95;;;;;;;;;;5066909;28;20458;-54
2022/03/23 09:27:18;;;;;;;68.90;20.38;;;;;;;;;;5067055;28;20063;-56
2022/03/23 09:29:44;;;;;;;63.67;20.05;;;;;;;;;;5067204;28;20090;-55
2022/03/23 09:32:12;;;;;;;51.85;19.58;;;;;;;;;;5068461;28;20119;-55
2022/03/23 09:34:39;;;;;;;57.75;20.50;;;;;;;;;;5067914;28;20028;-55
2022/03/23 09:39:50;;;;;;;53.58;19.50;;;;;;;;;;5064006;28;20047;-55
2022/03/23 09:42:18;;;;;;;55.63;18.45;;;;;;;;;;5065924;28;20021;-55
2022/03/23 09:44:48;;;;;;;56.28;19.13;;;;;;;;;;5065175;28;20078;-55
2022/03/23 09:47:14;;;;;;;47.30;19.52;;;;;;;;;;5066708;28;20036;-55
2022/03/23 09:49:41;;;;;;;59.85;18.58;;;;;;;;;;5066123;28;20453;-55
2022/03/23 09:52:06;;;;;;;55.58;20.10;;;;;;;;;;5068250;28;20051;-55
2022/03/23 09:54:32;;;;;;;54.15;19.83;;;;;;;;;;5068630;28;20490;-54
2022/03/23 09:56:58;;;;;;;52.35;19.02;;;;;;;;;;5068433;28;20156;-56
2022/03/23 09:59:24;;;;;;;60.92;16.70;;;;;;;;;;5065914;28;20505;-57
2022/03/23 10:02:01;;;;;;;64.82;18.65;;;;;;;;;;5071680;28;20048;-55
2022/03/23 10:04:49;;;;;;;47.80;19.45;;;;;;;;;;5066138;28;20183;-53
2022/03/23 10:07:27;;;;;;;59.00;18.27;;;;;;;;;;5063443;28;20028;-55
2022/03/23 10:10:18;;;;;;;57.65;18.58;;;;;;;;;;5058576;28;20028;-56
2022/03/23 10:13:21;;;;;;;55.78;18.42;;;;;;;;;;5066490;28;20074;-56
2022/03/23 10:16:02;;;;;;;56.85;18.35;;;;;;;;;;5063039;28;20032;-56
2022/03/23 10:18:56;;;;;;;66.15;22.17;;;;;;;;;;5061377;28;20029;-56
2022/03/23 10:21:26;;;;;;;55.90;19.70;;;;;;;;;;5065127;28;20020;-55
2022/03/23 10:23:58;;;;;;;56.42;18.88;;;;;;;;;;5063522;28;20105;-56
2022/03/23 10:26:24;;;;;;;59.08;18.80;;;;;;;;;;5065820;28;20485;-55
2022/03/23 10:28:50;;;;;;;54.50;17.92;;;;;;;;;;5068351;28;20041;-56
2022/03/23 10:31:18;;;;;;;55.53;19.50;;;;;;;;;;5068268;28;20031;-56
2022/03/23 10:33:55;;;;;;;71.22;20.10;;;;;;;;;;5064634;28;20055;-55
2022/03/23 10:36:21;;;;;;;49.53;19.15;;;;;;;;;;5064742;28;20730;-55
2022/03/23 10:38:47;;;;;;;54.28;19.60;;;;;;;;;;5081344;28;20117;-55
2022/03/23 10:41:23;;;;;;;53.53;17.90;;;;;;;;;;5068271;28;20107;-55
2022/03/23 10:43:49;;;;;;;67.95;19.67;;;;;;;;;;5065447;28;20032;-54
2022/03/23 10:46:14;;;;;;;52.88;18.23;;;;;;;;;;5063964;28;20032;-55
2022/03/23 10:48:59;;;;;;;52.08;19.73;;;;;;;;;;5067950;28;20147;-55
2022/03/23 10:51:29;;;;;;;50.60;16.77;;;;;;;;;;5066215;28;20028;-56
2022/03/23 10:53:56;;;;;;;53.17;16.85;;;;;;;;;;5066800;28;20136;-55
2022/03/23 10:56:35;;;;;;;42.22;17.25;;;;;;;;;;5066542;28;20028;-55
2022/03/23 10:59:15;;;;;;;56.33;19.58;;;;;;;;;;5065339;28;20029;-55
2022/03/23 11:02:05;;;;;;;69.00;20.85;;;;;;;;;;5064500;28;20447;-54
2022/03/23 11:04:34;;;;;;;59.05;19.75;;;;;;;;;;5067836;28;20060;-55
2022/03/23 11:07:01;;;;;;;44.35;18.42;;;;;;;;;;5069446;28;20403;-55
2022/03/23 11:18:07;;;;;;;54.70;20.45;;;;;;;;;;5064876;28;20039;-55
2022/03/23 11:20:54;;;;;;;50.80;19.30;;;;;;;;;;5065953;28;20024;-55
2022/03/23 11:23:20;;;;;;;48.47;17.70;;;;;;;;;;5066116;28;20103;-55
2022/03/23 11:25:48;;;;;;;56.53;18.58;;;;;;;;;;5067228;28;20550;-55
2022/03/23 11:28:15;;;;;;;57.70;18.63;;;;;;;;;;5067119;28;20093;-56
2022/03/23 11:30:41;;;;;;;62.60;19.13;;;;;;;;;;5066197;28;20082;-55
2022/03/23 11:33:10;;;;;;;61.97;21.27;;;;;;;;;;5067362;28;20437;-55
2022/03/23 11:35:38;;;;;;;58.70;21.23;;;;;;;;;;5067781;28;20024;-56
2022/03/23 11:38:06;;;;;;;53.38;20.60;;;;;;;;;;5067024;28;20021;-55
2022/03/23 11:40:32;;;;;;;76.63;20.85;;;;;;;;;;5081960;28;20048;-55
2022/03/23 11:42:58;;;;;;;66.07;22.67;;;;;;;;;;5066730;28;20078;-55
2022/03/23 11:45:24;;;;;;;66.78;22.50;;;;;;;;;;5065129;28;20397;-56
2022/03/23 11:47:58;;;;;;;60.33;21.90;;;;;;;;;;5066138;28;20036;-55
2022/03/23 11:50:39;;;;;;;63.38;21.38;;;;;;;;;;5061474;28;20041;-56
2022/03/23 11:53:17;;;;;;;62.63;22.55;;;;;;;;;;5066581;28;20036;-56
2022/03/23 11:55:50;;;;;;;72.65;21.88;;;;;;;;;;5061353;28;20021;-56
2022/03/23 11:58:23;;;;;;;53.15;20.52;;;;;;;;;;5064220;28;20401;-55
2022/03/23 12:01:05;;;;;;;52.67;21.65;;;;;;;;;;5062765;28;20101;-56
2022/03/23 12:03:40;;;;;;;;;;;;;;;;;;5067571;28;20391;-55
2022/03/23 12:06:22;;;;;;;61.88;21.42;;;;;;;;;;5065330;28;20423;-56
2022/03/23 12:08:58;;;;;;;50.08;19.98;;;;;;;;;;5065658;28;20037;-55
2022/03/23 12:11:31;;;;;;;54.35;21.08;;;;;;;;;;5066321;28;20036;-55
2022/03/23 12:14:00;;;;;;;54.08;21.27;;;;;;;;;;5064299;28;20037;-56
2022/03/23 12:16:55;;;;;;;56.60;19.60;;;;;;;;;;5065281;28;20558;-55
2022/03/23 12:19:28;;;;;;;48.90;18.70;;;;;;;;;;5064494;28;20126;-55
2022/03/23 12:22:14;;;;;;;44.83;15.98;;;;;;;;;;5065970;28;20355;-56
2022/03/23 12:25:06;;;;;;;39.40;16.15;;;;;;;;;;5064150;28;20064;-56
2022/03/23 12:28:10;;;;;;;41.92;14.07;;;;;;;;;;5064552;28;20039;-54
2022/03/23 12:30:43;;;;;;;42.65;16.02;;;;;;;;;;5064208;28;20097;-55
2022/03/23 12:33:14;;;;;;;52.20;14.60;;;;;;;;;;5066107;28;20055;-55
2022/03/23 12:35:39;;;;;;;61.53;14.50;;;;;;;;;;5063048;28;20047;-56
2022/03/23 12:38:22;;;;;;;33.88;12.18;;;;;;;;;;5065948;28;20406;-56
2022/03/23 12:40:48;;;;;;;28.38;12.23;;;;;;;;;;5058507;28;20017;-56
2022/03/23 12:43:33;;;;;;;32.10;12.10;;;;;;;;;;5065341;28;20137;-55
2022/03/23 12:45:59;;;;;;;29.17;13.45;;;;;;;;;;5060276;28;20549;-56
2022/03/23 13:00:10;;;;;;;30.33;11.43;;;;;;;;;;5020508;28;20503;-54
2022/03/23 13:02:35;;;;;;;29.63;12.13;;;;;;;;;;5049942;28;20128;-56
2022/03/23 13:05:05;;;;;;;36.20;13.07;;;;;;;;;;5061574;28;20135;-55
2022/03/23 13:07:30;;;;;;;35.35;12.85;;;;;;;;;;5060739;28;20391;-53
2022/03/23 13:10:18;;;;;;;32.97;14.30;;;;;;;;;;5061210;28;20036;-53
2022/03/23 13:12:46;;;;;;;31.20;13.38;;;;;;;;;;5060734;28;20070;-54
2022/03/23 13:15:19;;;;;;;30.80;12.45;;;;;;;;;;5064165;28;20024;-50
2022/03/23 13:17:47;;;;;;;34.85;12.90;;;;;;;;;;5068794;28;20028;-53
2022/03/23 13:20:18;;;;;;;35.90;12.68;;;;;;;;;;5061936;28;20020;-53
2022/03/23 13:22:44;;;;;;;26.95;11.77;;;;;;;;;;5065801;28;20063;-54
2022/03/23 13:25:12;;;;;;;37.40;13.30;;;;;;;;;;5062828;28;20040;-53
2022/03/23 13:27:39;;;;;;;34.15;13.02;;;;;;;;;;5064848;28;20482;-52
2022/03/23 13:30:11;;;;;;;30.15;13.25;;;;;;;;;;5064902;28;20686;-51
2022/03/23 13:32:39;;;;;;;33.15;13.00;;;;;;;;;;5063332;28;20174;-54
2022/03/23 13:35:13;;;;;;;26.25;12.30;;;;;;;;;;5058500;28;20021;-53
2022/03/23 13:37:58;;;;;;;30.35;13.70;;;;;;;;;;5064818;28;20572;-53
2022/03/23 13:43:19;;;;;;;30.65;12.73;;;;;;;;;;5063599;28;20027;-51
2022/03/23 13:43:20;;;;;;;47.00;13.57;;;;;;;;;;5065066;28;20079;-54
2022/03/23 13:45:47;;;;;;;31.73;12.90;;;;;;;;;;5065044;28;20044;-54
2022/03/23 13:48:13;;;;;;;28.15;12.07;;;;;;;;;;5062287;28;20043;-54
2022/03/23 13:50:52;;;;;;;39.47;12.77;;;;;;;;;;5061316;28;20041;-54
2022/03/23 13:53:21;;;;;;;30.38;13.02;;;;;;;;;;5064226;28;20097;-53
2022/03/23 13:55:49;;;;;;;30.98;14.00;;;;;;;;;;5062177;28;20032;-51
2022/03/23 13:58:21;;;;;;;35.85;13.93;;;;;;;;;;5064658;28;20109;-53
2022/03/23 14:00:50;;;;;;;29.55;14.35;;;;;;;;;;5068509;28;20027;-54
2022/03/23 14:03:30;;;;;;;54.47;14.90;;;;;;;;;;5068157;28;20035;-54
2022/03/23 14:06:03;;;;;;;38.00;13.25;;;;;;;;;;5067467;28;20055;-54
2022/03/23 14:08:30;;;;;;;31.00;14.07;;;;;;;;;;5066592;28;20055;-53
2022/03/23 14:10:56;;;;;;;34.60;13.18;;;;;;;;;;5069056;28;20501;-54
2022/03/23 14:13:26;;;;;;;36.50;12.75;;;;;;;;;;5070494;28;20036;-54
2022/03/23 14:15:57;;;;;;;44.70;14.15;;;;;;;;;;5068411;28;20040;-54
2022/03/23 14:18:24;;;;;;;33.47;13.10;;;;;;;;;;5067640;28;20028;-54
2022/03/23 14:20:55;;;;;;;26.33;12.10;;;;;;;;;;5061771;28;20028;-52
2022/03/23 14:23:23;;;;;;;27.77;12.73;;;;;;;;;;5067013;28;20028;-54
2022/03/23 14:25:51;;;;;;;36.20;13.30;;;;;;;;;;5064438;28;20032;-54
2022/03/23 14:28:19;;;;;;;24.52;12.32;;;;;;;;;;5067475;28;20029;-54
2022/03/23 14:30:49;;;;;;;27.50;12.45;;;;;;;;;;5068789;28;20111;-53
2022/03/23 14:33:22;;;;;;;24.42;12.10;;;;;;;;;;5068378;28;20537;-55
2022/03/23 14:35:49;;;;;;;27.75;12.98;;;;;;;;;;5067274;28;20036;-54
2022/03/23 14:38:22;;;;;;;33.08;12.93;;;;;;;;;;5065059;28;20032;-55
2022/03/23 14:40:50;;;;;;;31.02;12.15;;;;;;;;;;5062726;28;20024;-53
2022/03/23 14:43:31;;;;;;;29.88;12.63;;;;;;;;;;5072193;28;20028;-53
2022/03/23 14:46:18;;;;;;;30.90;14.45;;;;;;;;;;5068000;28;20028;-54
2022/03/23 14:48:44;;;;;;;36.60;14.35;;;;;;;;;;5071111;28;20028;-54
2022/03/23 14:51:11;;;;;;;39.45;14.93;;;;;;;;;;5069461;28;20084;-51
2022/03/23 14:53:37;;;;;;;39.22;14.27;;;;;;;;;;5070033;28;20043;-53
2022/03/23 14:56:02;;;;;;;36.47;14.30;;;;;;;;;;5065810;28;20028;-54
2022/03/23 14:58:33;;;;;;;31.13;14.27;;;;;;;;;;5068296;28;20024;-53